Iles-de-la-Madeleine, Canada
Current Conditions -  °F | °C
As of 11:00 PM on Wednesday 26 Nov 2014 (Local Time) from CYGR Reporting Station
Light Snow Light Snow  
Wind Chill: 21°   Ceiling: 500
Heat Index: 30°   Visibility: 0.75mi
Dew Point: 30°   Wind: 10mph
Humidity: 100%   Direction: 30°NNE
Pressure: 30.12"   Gusts: NA
Location:  47.42°N, 61.77°W
Report Text: CYGR 270300Z 03009KT 3/4SM -SN VV005 M01/M01 A3012 RMK SN8 /S04/ LAST OBS/NEXT 271000 UTC SLP200
Loading
Personal Weather Stations






























Interactive Weather Map New forecast layout! Learn more

10-Day Weather Forecast

Advertisements
Track Severe Weather on mobile